Najran, Saudi Arabia
Current Conditions -  °F | °C
As of 1:00 AM on Tuesday 23 Dec 2014 (Local Time) from OENG Reporting Station
Clear Clear  
Wind Chill: 59°   Ceiling: Unl
Heat Index: 59°   Visibility: 6mi
Dew Point: 30°   Wind: 0mph
Humidity: 34%   Direction: NA
Pressure: 30.12"   Gusts: NA
Location:  17.62°N, 44.42°E
Report Text: OENG 222200Z 00000KT CAVOK 15/M01 Q1020 NOSIG
Loading
Personal Weather Stations






























Interactive Weather Map New forecast layout! Learn more

10-Day Weather Forecast

Advertisements
Track Severe Weather on mobile